Terminal Aerodrome Forecast
Issued by NWS Wilmington, OH

Current Version | Previous Version | Graphics & Text | Print | Product List | Glossary On
Versions: 1 2 3 4 5 6 7 8 9 10 11 12 13 14 15 16 17 18 19 20 21 22 23 24 25 26 27 28
000
FTUS41 KILN 250300 AAB
TAFCVG
TAF AMD
KCVG 250300Z 2503/2606 27011G19KT P6SM VCSH BKN017 OVC024
      TEMPO 2503/2507 -SHRA SCT017 OVC025
     FM250800 25012G20KT P6SM VCSH OVC022
     FM251300 23010KT P6SM BKN025
     FM260000 18006KT P6SM BKN025=

USA.gov is the U.S. government's official web portal to all federal, state and local government web resources and services.